PWSweather.com
Personal Weather Stations
Station Observations
GRD01
Warsaw, LesznoPL 05-084

WarsawLesznoPL 05-084

Lat: 52.257404, Lon: 20.564847

Elevation: 298

Station Type: WH3080

http://pogoda.kampinos.waw.pl

High Low Average
Temperature 49.8°F9.9°C 36.0°F2.2°C 42.6°F5.9°C
Dew Point 44.9°F7.2°C 29.4°F-1.4°C 37.2°F2.9°C
Winds 20.6 mph 33.2 kmh Calm Calm 10.0 mph SW16.1 kmh SW
Wind Gusts 30.4 mph48.9 kmh 1.6 mph2.6 kmh 18.0 mph29.0 kmh
Humidity 88% 71% 81%
Pressure 28.91 in979.0 mb 28.75 in973.6 mb -
Precipitation 0.20 in5.1 mm - -
Hour Temp Dew Point Humidity Winds Wind Gusts Pressure Precip Precip Rate Daily Precip Total
12:00 AM 49.3°F9.6°C 44.3°F6.8°C 83% 4.5 mph E7.2 kmh E 6.9 mph11.1 kmh 28.89 in978.3 mb 0.00 in0.0 mm 0.00 in0.0 mm 0.00 in0.0 mm
12:15 AM 49.3°F9.6°C 44.3°F6.8°C 83% 4.5 mph E7.2 kmh E 10.7 mph17.2 kmh 28.88 in978.0 mb 0.00 in0.0 mm 0.00 in0.0 mm 0.00 in0.0 mm
12:30 AM 49.3°F9.6°C 44.0°F6.7°C 82% 3.8 mph E6.1 kmh E 8.3 mph13.4 kmh 28.87 in977.7 mb 0.00 in0.0 mm 0.00 in0.0 mm 0.00 in0.0 mm
12:45 AM 49.3°F9.6°C 44.0°F6.7°C 82% 3.8 mph E6.1 kmh E 8.3 mph13.4 kmh 28.86 in977.3 mb 0.00 in0.0 mm 0.00 in0.0 mm 0.00 in0.0 mm
01:00 AM 49.3°F9.6°C 44.0°F6.7°C 82% 6.0 mph E9.7 kmh E 9.8 mph15.8 kmh 28.86 in977.3 mb 0.00 in0.0 mm 0.00 in0.0 mm 0.00 in0.0 mm
01:15 AM 49.5°F9.7°C 44.5°F6.9°C 83% 3.1 mph E5.0 kmh E 9.8 mph15.8 kmh 28.85 in977.0 mb 0.00 in0.0 mm 0.00 in0.0 mm 0.00 in0.0 mm
01:30 AM 49.6°F9.8°C 44.7°F7.1°C 83% 2.2 mph ENE3.5 kmh ENE 7.6 mph12.2 kmh 28.84 in976.6 mb 0.00 in0.0 mm 0.00 in0.0 mm 0.00 in0.0 mm
01:45 AM 49.6°F9.8°C 44.7°F7.1°C 83% 2.2 mph NE3.5 kmh NE 5.4 mph8.7 kmh 28.84 in976.6 mb 0.00 in0.0 mm 0.00 in0.0 mm 0.00 in0.0 mm
02:00 AM 49.8°F9.9°C 44.9°F7.2°C 83% 3.8 mph NE6.1 kmh NE 6.0 mph9.7 kmh 28.84 in976.6 mb 0.00 in0.0 mm 0.00 in0.0 mm 0.00 in0.0 mm
02:15 AM 49.8°F9.9°C 44.9°F7.2°C 83% 3.1 mph NE5.0 kmh NE 6.0 mph9.7 kmh 28.83 in976.3 mb 0.02 in0.5 mm 0.08 in2.0 mm 0.02 in0.5 mm
02:30 AM 49.5°F9.7°C 44.5°F6.9°C 83% 3.1 mph NNE5.0 kmh NNE 6.0 mph9.7 kmh 28.82 in976.0 mb 0.05 in1.3 mm 0.12 in3.0 mm 0.05 in1.3 mm
02:45 AM 49.3°F9.6°C 44.0°F6.7°C 82% 3.8 mph NNE6.1 kmh NNE 6.0 mph9.7 kmh 28.81 in975.6 mb 0.06 in1.5 mm 0.04 in1.0 mm 0.06 in1.5 mm
03:00 AM 49.1°F9.5°C 43.8°F6.6°C 82% 4.5 mph NNE7.2 kmh NNE 8.3 mph13.4 kmh 28.80 in975.3 mb 0.07 in1.8 mm 0.01 in0.3 mm 0.07 in1.8 mm
03:15 AM 49.1°F9.5°C 44.2°F6.8°C 83% 5.4 mph NE8.7 kmh NE 9.2 mph14.8 kmh 28.80 in975.3 mb 0.05 in1.3 mm 0.00 in0.0 mm 0.07 in1.8 mm
03:30 AM 49.1°F9.5°C 44.2°F6.8°C 83% 5.4 mph E8.7 kmh E 6.9 mph11.1 kmh 28.80 in975.3 mb 0.02 in0.5 mm 0.00 in0.0 mm 0.07 in1.8 mm
03:45 AM 49.1°F9.5°C 44.2°F6.8°C 83% 3.1 mph NE5.0 kmh NE 7.6 mph12.2 kmh 28.79 in974.9 mb 0.02 in0.5 mm 0.00 in0.0 mm 0.08 in2.0 mm
04:00 AM 49.1°F9.5°C 44.2°F6.8°C 83% 2.2 mph NE3.5 kmh NE 8.3 mph13.4 kmh 28.78 in974.6 mb 0.02 in0.5 mm 0.00 in0.0 mm 0.09 in2.3 mm
04:15 AM 49.1°F9.5°C 44.2°F6.8°C 83% 3.1 mph NE5.0 kmh NE 7.6 mph12.2 kmh 28.77 in974.3 mb 0.05 in1.3 mm 0.12 in3.0 mm 0.12 in3.0 mm
04:30 AM 49.1°F9.5°C 44.2°F6.8°C 83% 0.7 mph E1.1 kmh E 3.8 mph6.1 kmh 28.78 in974.6 mb 0.06 in1.5 mm 0.04 in1.0 mm 0.13 in3.3 mm
04:45 AM 49.1°F9.5°C 44.2°F6.8°C 83% 3.8 mph ENE6.1 kmh ENE 4.5 mph7.2 kmh 28.77 in974.3 mb 0.06 in1.5 mm 0.00 in0.0 mm 0.14 in3.6 mm
05:00 AM 49.1°F9.5°C 44.2°F6.8°C 83% 2.2 mph E3.5 kmh E 5.4 mph8.7 kmh 28.77 in974.3 mb 0.06 in1.5 mm 0.00 in0.0 mm 0.15 in3.8 mm
05:15 AM 49.1°F9.5°C 44.2°F6.8°C 83% 1.6 mph ENE2.6 kmh ENE 5.4 mph8.7 kmh 28.76 in973.9 mb 0.05 in1.3 mm 0.00 in0.0 mm 0.17 in4.3 mm
05:30 AM 49.1°F9.5°C 44.2°F6.8°C 83% Calm Calm 2.2 mph3.5 kmh 28.77 in974.3 mb 0.04 in1.0 mm 0.00 in0.0 mm 0.17 in4.3 mm
05:45 AM 49.1°F9.5°C 44.2°F6.8°C 83% 1.6 mph E2.6 kmh E 3.1 mph5.0 kmh 28.75 in973.6 mb 0.04 in1.0 mm 0.00 in0.0 mm 0.18 in4.6 mm
06:00 AM 48.9°F9.4°C 44.0°F6.7°C 83% Calm Calm 1.6 mph2.6 kmh 28.75 in973.6 mb 0.01 in0.3 mm 0.00 in0.0 mm 0.18 in4.6 mm
06:15 AM 48.9°F9.4°C 44.0°F6.7°C 83% Calm Calm 1.6 mph2.6 kmh 28.76 in973.9 mb 0.01 in0.3 mm 0.00 in0.0 mm 0.18 in4.6 mm
06:30 AM 48.2°F9.0°C 43.3°F6.3°C 83% Calm Calm 2.2 mph3.5 kmh 28.76 in973.9 mb 0.01 in0.3 mm 0.00 in0.0 mm 0.18 in4.6 mm
06:45 AM 48.2°F9.0°C 43.3°F6.3°C 83% 6.9 mph SW11.1 kmh SW 9.8 mph15.8 kmh 28.76 in973.9 mb 0.00 in0.0 mm 0.00 in0.0 mm 0.18 in4.6 mm
07:00 AM 47.7°F8.7°C 42.8°F6.0°C 83% 4.5 mph SSW7.2 kmh SSW 16.8 mph27.0 kmh 28.77 in974.3 mb 0.00 in0.0 mm 0.00 in0.0 mm 0.18 in4.6 mm
07:15 AM 46.9°F8.3°C 42.0°F5.6°C 83% 9.2 mph SW14.8 kmh SW 13.0 mph20.9 kmh 28.76 in973.9 mb 0.01 in0.3 mm 0.04 in1.0 mm 0.19 in4.8 mm
07:30 AM 46.4°F8.0°C 41.5°F5.3°C 83% 10.7 mph SW17.2 kmh SW 16.8 mph27.0 kmh 28.77 in974.3 mb 0.01 in0.3 mm 0.00 in0.0 mm 0.19 in4.8 mm
07:45 AM 45.9°F7.7°C 40.7°F4.8°C 82% 12.1 mph WSW19.5 kmh WSW 15.2 mph24.5 kmh 28.77 in974.3 mb 0.01 in0.3 mm 0.00 in0.0 mm 0.19 in4.8 mm
08:00 AM 45.5°F7.5°C 40.3°F4.6°C 82% 10.7 mph WSW17.2 kmh WSW 21.3 mph34.3 kmh 28.78 in974.6 mb 0.01 in0.3 mm 0.00 in0.0 mm 0.19 in4.8 mm
08:15 AM 45.1°F7.3°C 41.8°F5.4°C 88% 13.0 mph W20.9 kmh W 20.6 mph33.2 kmh 28.78 in974.6 mb 0.00 in0.0 mm 0.00 in0.0 mm 0.19 in4.8 mm
08:30 AM 44.6°F7.0°C 41.0°F5.0°C 87% 12.1 mph W19.5 kmh W 18.3 mph29.5 kmh 28.79 in974.9 mb 0.00 in0.0 mm 0.00 in0.0 mm 0.19 in4.8 mm
08:45 AM 44.4°F6.9°C 40.8°F4.9°C 87% 9.8 mph WSW15.8 kmh WSW 23.5 mph37.8 kmh 28.79 in974.9 mb 0.00 in0.0 mm 0.00 in0.0 mm 0.19 in4.8 mm
09:00 AM 44.1°F6.7°C 40.4°F4.7°C 87% 12.1 mph WSW19.5 kmh WSW 20.6 mph33.2 kmh 28.80 in975.3 mb 0.00 in0.0 mm 0.00 in0.0 mm 0.19 in4.8 mm
09:15 AM 43.7°F6.5°C 40.1°F4.5°C 87% 9.2 mph SW14.8 kmh SW 19.7 mph31.7 kmh 28.82 in976.0 mb 0.00 in0.0 mm 0.00 in0.0 mm 0.19 in4.8 mm
09:30 AM 43.5°F6.4°C 39.9°F4.4°C 87% 6.0 mph WSW9.7 kmh WSW 19.7 mph31.7 kmh 28.81 in975.6 mb 0.00 in0.0 mm 0.00 in0.0 mm 0.19 in4.8 mm
09:45 AM 43.3°F6.3°C 39.7°F4.3°C 87% 9.2 mph W14.8 kmh W 15.9 mph25.6 kmh 28.81 in975.6 mb 0.00 in0.0 mm 0.00 in0.0 mm 0.19 in4.8 mm
10:00 AM 43.0°F6.1°C 39.4°F4.1°C 87% 8.3 mph W13.4 kmh W 19.7 mph31.7 kmh 28.82 in976.0 mb 0.00 in0.0 mm 0.00 in0.0 mm 0.19 in4.8 mm
10:15 AM 42.8°F6.0°C 38.9°F3.8°C 86% 12.1 mph W19.5 kmh W 15.9 mph25.6 kmh 28.82 in976.0 mb 0.00 in0.0 mm 0.00 in0.0 mm 0.19 in4.8 mm
10:30 AM 42.6°F5.9°C 38.7°F3.7°C 86% 8.3 mph W13.4 kmh W 19.0 mph30.6 kmh 28.82 in976.0 mb 0.00 in0.0 mm 0.00 in0.0 mm 0.19 in4.8 mm
10:45 AM 42.3°F5.7°C 38.4°F3.6°C 86% 7.6 mph SW12.2 kmh SW 15.2 mph24.5 kmh 28.83 in976.3 mb 0.00 in0.0 mm 0.00 in0.0 mm 0.19 in4.8 mm
11:00 AM 42.1°F5.6°C 38.2°F3.4°C 86% 8.3 mph WSW13.4 kmh WSW 15.2 mph24.5 kmh 28.83 in976.3 mb 0.00 in0.0 mm 0.00 in0.0 mm 0.19 in4.8 mm
11:15 AM 41.7°F5.4°C 37.8°F3.2°C 86% 12.1 mph WSW19.5 kmh WSW 20.6 mph33.2 kmh 28.82 in976.0 mb 0.00 in0.0 mm 0.00 in0.0 mm 0.19 in4.8 mm
11:30 AM 41.4°F5.2°C 37.5°F3.1°C 86% 9.2 mph WNW14.8 kmh WNW 21.3 mph34.3 kmh 28.83 in976.3 mb 0.00 in0.0 mm 0.00 in0.0 mm 0.19 in4.8 mm
11:45 AM 41.2°F5.1°C 37.3°F2.9°C 86% 8.3 mph WSW13.4 kmh WSW 19.0 mph30.6 kmh 28.83 in976.3 mb 0.00 in0.0 mm 0.00 in0.0 mm 0.19 in4.8 mm
12:00 PM 41.0°F5.0°C 37.1°F2.8°C 86% 8.3 mph W13.4 kmh W 22.1 mph35.6 kmh 28.84 in976.6 mb 0.00 in0.0 mm 0.00 in0.0 mm 0.19 in4.8 mm
12:15 PM 40.6°F4.8°C 36.5°F2.5°C 85% 8.3 mph SW13.4 kmh SW 18.3 mph29.5 kmh 28.84 in976.6 mb 0.00 in0.0 mm 0.00 in0.0 mm 0.19 in4.8 mm
12:30 PM 40.5°F4.7°C 36.3°F2.4°C 85% 11.4 mph WSW18.3 kmh WSW 19.7 mph31.7 kmh 28.84 in976.6 mb 0.00 in0.0 mm 0.00 in0.0 mm 0.19 in4.8 mm
12:45 PM 40.5°F4.7°C 36.3°F2.4°C 85% 14.5 mph W23.3 kmh W 21.3 mph34.3 kmh 28.84 in976.6 mb 0.00 in0.0 mm 0.00 in0.0 mm 0.19 in4.8 mm
01:00 PM 40.5°F4.7°C 36.3°F2.4°C 85% 8.3 mph NW13.4 kmh NW 21.3 mph34.3 kmh 28.83 in976.3 mb 0.00 in0.0 mm 0.00 in0.0 mm 0.19 in4.8 mm
01:15 PM 40.1°F4.5°C 36.0°F2.2°C 85% 12.1 mph WSW19.5 kmh WSW 19.7 mph31.7 kmh 28.83 in976.3 mb 0.00 in0.0 mm 0.00 in0.0 mm 0.19 in4.8 mm
01:30 PM 40.1°F4.5°C 36.0°F2.2°C 85% 9.8 mph W15.8 kmh W 17.4 mph28.0 kmh 28.83 in976.3 mb 0.00 in0.0 mm 0.00 in0.0 mm 0.19 in4.8 mm
01:45 PM 39.9°F4.4°C 35.5°F1.9°C 84% 13.0 mph W20.9 kmh W 25.1 mph40.4 kmh 28.84 in976.6 mb 0.01 in0.3 mm 0.04 in1.0 mm 0.20 in5.1 mm
02:00 PM 40.1°F4.5°C 35.7°F2.1°C 84% 20.6 mph W33.2 kmh W 25.9 mph41.7 kmh 28.84 in976.6 mb 0.01 in0.3 mm 0.00 in0.0 mm 0.20 in5.1 mm
02:15 PM 40.1°F4.5°C 35.4°F1.9°C 83% 15.9 mph W25.6 kmh W 25.1 mph40.4 kmh 28.84 in976.6 mb 0.01 in0.3 mm 0.00 in0.0 mm 0.20 in5.1 mm
02:30 PM 39.9°F4.4°C 34.9°F1.6°C 82% 15.9 mph WNW25.6 kmh WNW 23.5 mph37.8 kmh 28.85 in977.0 mb 0.01 in0.3 mm 0.00 in0.0 mm 0.20 in5.1 mm
02:45 PM 39.7°F4.3°C 34.4°F1.3°C 81% 19.0 mph W30.6 kmh W 27.3 mph43.9 kmh 28.85 in977.0 mb 0.00 in0.0 mm 0.00 in0.0 mm 0.20 in5.1 mm
03:00 PM 39.6°F4.2°C 34.2°F1.2°C 81% 10.7 mph W17.2 kmh W 25.1 mph40.4 kmh 28.85 in977.0 mb 0.00 in0.0 mm 0.00 in0.0 mm 0.20 in5.1 mm
03:15 PM 39.6°F4.2°C 34.2°F1.2°C 81% 20.6 mph SW33.2 kmh SW 26.6 mph42.8 kmh 28.85 in977.0 mb 0.00 in0.0 mm 0.00 in0.0 mm 0.20 in5.1 mm
03:30 PM 39.4°F4.1°C 33.7°F0.9°C 80% 13.6 mph W21.9 kmh W 24.4 mph39.3 kmh 28.85 in977.0 mb 0.00 in0.0 mm 0.00 in0.0 mm 0.20 in5.1 mm
03:45 PM 39.4°F4.1°C 33.7°F0.9°C 80% 19.0 mph SW30.6 kmh SW 24.4 mph39.3 kmh 28.86 in977.3 mb 0.00 in0.0 mm 0.00 in0.0 mm 0.20 in5.1 mm
04:00 PM 39.2°F4.0°C 33.5°F0.8°C 80% 11.4 mph WSW18.3 kmh WSW 25.9 mph41.7 kmh 28.85 in977.0 mb 0.00 in0.0 mm 0.00 in0.0 mm 0.20 in5.1 mm
04:15 PM 39.2°F4.0°C 33.2°F0.7°C 79% 6.9 mph W11.1 kmh W 22.1 mph35.6 kmh 28.85 in977.0 mb 0.00 in0.0 mm 0.00 in0.0 mm 0.20 in5.1 mm
04:30 PM 39.2°F4.0°C 33.2°F0.7°C 79% 15.9 mph W25.6 kmh W 29.8 mph48.0 kmh 28.85 in977.0 mb 0.00 in0.0 mm 0.00 in0.0 mm 0.20 in5.1 mm
04:45 PM 39.2°F4.0°C 32.9°F0.5°C 78% 15.9 mph W25.6 kmh W 23.5 mph37.8 kmh 28.86 in977.3 mb 0.00 in0.0 mm 0.00 in0.0 mm 0.20 in5.1 mm
05:00 PM 39.2°F4.0°C 32.9°F0.5°C 78% 15.2 mph WNW24.5 kmh WNW 22.8 mph36.7 kmh 28.86 in977.3 mb 0.00 in0.0 mm 0.00 in0.0 mm 0.20 in5.1 mm
05:15 PM 39.2°F4.0°C 32.9°F0.5°C 78% 11.4 mph WSW18.3 kmh WSW 25.9 mph41.7 kmh 28.85 in977.0 mb 0.00 in0.0 mm 0.00 in0.0 mm 0.20 in5.1 mm
05:30 PM 39.2°F4.0°C 32.9°F0.5°C 78% 9.2 mph W14.8 kmh W 24.4 mph39.3 kmh 28.86 in977.3 mb 0.00 in0.0 mm 0.00 in0.0 mm 0.20 in5.1 mm
05:45 PM 39.2°F4.0°C 32.9°F0.5°C 78% 9.2 mph WNW14.8 kmh WNW 27.3 mph43.9 kmh 28.86 in977.3 mb 0.00 in0.0 mm 0.00 in0.0 mm 0.20 in5.1 mm
06:00 PM 39.4°F4.1°C 32.8°F0.4°C 77% 12.1 mph WSW19.5 kmh WSW 26.6 mph42.8 kmh 28.86 in977.3 mb 0.00 in0.0 mm 0.00 in0.0 mm 0.20 in5.1 mm
06:15 PM 39.4°F4.1°C 32.8°F0.4°C 77% 9.8 mph W15.8 kmh W 24.4 mph39.3 kmh 28.86 in977.3 mb 0.00 in0.0 mm 0.00 in0.0 mm 0.20 in5.1 mm
06:30 PM 39.4°F4.1°C 32.4°F0.2°C 76% 13.0 mph WNW20.9 kmh WNW 23.5 mph37.8 kmh 28.86 in977.3 mb 0.00 in0.0 mm 0.00 in0.0 mm 0.20 in5.1 mm
06:45 PM 39.4°F4.1°C 32.1°F0.1°C 75% 13.0 mph NW20.9 kmh NW 19.7 mph31.7 kmh 28.87 in977.7 mb 0.00 in0.0 mm 0.00 in0.0 mm 0.20 in5.1 mm
07:00 PM 39.4°F4.1°C 32.1°F0.1°C 75% 15.9 mph WSW25.6 kmh WSW 23.5 mph37.8 kmh 28.87 in977.7 mb 0.00 in0.0 mm 0.00 in0.0 mm 0.20 in5.1 mm
07:15 PM 39.4°F4.1°C 31.4°F-0.3°C 73% 10.7 mph W17.2 kmh W 21.3 mph34.3 kmh 28.88 in978.0 mb 0.00 in0.0 mm 0.00 in0.0 mm 0.20 in5.1 mm
07:30 PM 39.2°F4.0°C 31.3°F-0.4°C 73% 13.0 mph WSW20.9 kmh WSW 24.4 mph39.3 kmh 28.88 in978.0 mb 0.00 in0.0 mm 0.00 in0.0 mm 0.20 in5.1 mm
07:45 PM 39.0°F3.9°C 30.8°F-0.7°C 72% 16.8 mph WNW27.0 kmh WNW 24.4 mph39.3 kmh 28.88 in978.0 mb 0.00 in0.0 mm 0.00 in0.0 mm 0.20 in5.1 mm
08:00 PM 38.7°F3.7°C 30.4°F-0.9°C 72% 16.8 mph WSW27.0 kmh WSW 26.6 mph42.8 kmh 28.88 in978.0 mb 0.00 in0.0 mm 0.00 in0.0 mm 0.20 in5.1 mm
08:15 PM 38.3°F3.5°C 30.1°F-1.1°C 72% 13.6 mph W21.9 kmh W 24.4 mph39.3 kmh 28.88 in978.0 mb 0.00 in0.0 mm 0.00 in0.0 mm 0.20 in5.1 mm
08:30 PM 38.3°F3.5°C 30.1°F-1.1°C 72% 9.8 mph W15.8 kmh W 23.5 mph37.8 kmh 28.89 in978.3 mb 0.00 in0.0 mm 0.00 in0.0 mm 0.20 in5.1 mm
08:45 PM 38.1°F3.4°C 29.9°F-1.2°C 72% 9.8 mph WNW15.8 kmh WNW 30.4 mph48.9 kmh 28.89 in978.3 mb 0.00 in0.0 mm 0.00 in0.0 mm 0.20 in5.1 mm
09:00 PM 37.9°F3.3°C 29.4°F-1.4°C 71% 15.9 mph WSW25.6 kmh WSW 28.9 mph46.5 kmh 28.90 in978.7 mb 0.00 in0.0 mm 0.00 in0.0 mm 0.20 in5.1 mm
09:15 PM 37.8°F3.2°C 29.5°F-1.4°C 72% 9.8 mph W15.8 kmh W 24.4 mph39.3 kmh 28.89 in978.3 mb 0.00 in0.0 mm 0.00 in0.0 mm 0.20 in5.1 mm
09:30 PM 37.6°F3.1°C 29.4°F-1.4°C 72% 14.5 mph WSW23.3 kmh WSW 21.3 mph34.3 kmh 28.89 in978.3 mb 0.00 in0.0 mm 0.00 in0.0 mm 0.20 in5.1 mm
09:45 PM 37.4°F3.0°C 29.5°F-1.4°C 73% 13.6 mph WSW21.9 kmh WSW 24.4 mph39.3 kmh 28.90 in978.7 mb 0.00 in0.0 mm 0.00 in0.0 mm 0.20 in5.1 mm
10:00 PM 37.0°F2.8°C 29.5°F-1.4°C 74% 15.9 mph W25.6 kmh W 23.5 mph37.8 kmh 28.90 in978.7 mb 0.00 in0.0 mm 0.00 in0.0 mm 0.20 in5.1 mm
10:15 PM 36.7°F2.6°C 29.5°F-1.4°C 75% 9.8 mph W15.8 kmh W 24.4 mph39.3 kmh 28.90 in978.7 mb 0.00 in0.0 mm 0.00 in0.0 mm 0.20 in5.1 mm
10:30 PM 36.3°F2.4°C 29.5°F-1.4°C 76% 8.3 mph W13.4 kmh W 19.0 mph30.6 kmh 28.90 in978.7 mb 0.00 in0.0 mm 0.00 in0.0 mm 0.20 in5.1 mm
10:45 PM 36.0°F2.2°C 29.4°F-1.4°C 77% 11.4 mph WSW18.3 kmh WSW 25.9 mph41.7 kmh 28.90 in978.7 mb 0.00 in0.0 mm 0.00 in0.0 mm 0.20 in5.1 mm
11:00 PM 36.0°F2.2°C 29.8°F-1.2°C 78% 9.2 mph WNW14.8 kmh WNW 23.5 mph37.8 kmh 28.90 in978.7 mb 0.00 in0.0 mm 0.00 in0.0 mm 0.13 in3.3 mm
11:15 PM 36.0°F2.2°C 30.4°F-0.9°C 80% 12.1 mph W19.5 kmh W 19.0 mph30.6 kmh 28.90 in978.7 mb 0.00 in0.0 mm 0.00 in0.0 mm 0.13 in3.3 mm
11:30 PM 36.1°F2.3°C 30.6°F-0.8°C 80% 16.8 mph WNW27.0 kmh WNW 23.5 mph37.8 kmh 28.90 in978.7 mb 0.00 in0.0 mm 0.00 in0.0 mm 0.13 in3.3 mm
11:45 PM 36.1°F2.3°C 30.3°F-0.9°C 79% 15.2 mph WNW24.5 kmh WNW 22.1 mph35.6 kmh 28.91 in979.0 mb 0.00 in0.0 mm 0.00 in0.0 mm 0.13 in3.3 mm